sensor_id;sensor_type;location;lat;lon;timestamp;P1;durP1;ratioP1;P2;durP2;ratioP2
12774;SDS011;6451;42.630;23.382;2024-03-02T00:01:20;26.83;;;20.13;;
12774;SDS011;6451;42.630;23.382;2024-03-02T00:03:47;27.03;;;20.10;;
12774;SDS011;6451;42.630;23.382;2024-03-02T00:06:14;30.40;;;20.97;;
12774;SDS011;6451;42.630;23.382;2024-03-02T00:08:48;28.40;;;19.90;;
12774;SDS011;6451;42.630;23.382;2024-03-02T00:11:16;30.13;;;21.50;;
12774;SDS011;6451;42.630;23.382;2024-03-02T00:13:45;32.27;;;21.07;;
12774;SDS011;6451;42.630;23.382;2024-03-02T00:16:15;30.50;;;20.20;;
12774;SDS011;6451;42.630;23.382;2024-03-02T00:18:43;29.90;;;20.43;;
12774;SDS011;6451;42.630;23.382;2024-03-02T00:21:11;29.13;;;20.30;;
12774;SDS011;6451;42.630;23.382;2024-03-02T00:23:39;33.00;;;21.07;;
12774;SDS011;6451;42.630;23.382;2024-03-02T00:26:08;27.60;;;19.40;;
12774;SDS011;6451;42.630;23.382;2024-03-02T00:28:39;29.70;;;19.40;;
12774;SDS011;6451;42.630;23.382;2024-03-02T00:31:09;29.40;;;19.27;;
12774;SDS011;6451;42.630;23.382;2024-03-02T00:33:40;28.70;;;19.73;;
12774;SDS011;6451;42.630;23.382;2024-03-02T00:36:10;28.67;;;20.57;;
12774;SDS011;6451;42.630;23.382;2024-03-02T00:38:44;30.13;;;21.33;;
12774;SDS011;6451;42.630;23.382;2024-03-02T00:41:27;35.03;;;22.13;;
12774;SDS011;6451;42.630;23.382;2024-03-02T00:43:58;34.20;;;22.23;;
12774;SDS011;6451;42.630;23.382;2024-03-02T00:46:27;31.53;;;20.93;;
12774;SDS011;6451;42.630;23.382;2024-03-02T00:48:57;29.70;;;20.53;;
12774;SDS011;6451;42.630;23.382;2024-03-02T00:51:25;31.43;;;21.30;;
12774;SDS011;6451;42.630;23.382;2024-03-02T00:53:55;32.20;;;21.80;;
12774;SDS011;6451;42.630;23.382;2024-03-02T00:56:26;31.00;;;21.17;;
12774;SDS011;6451;42.630;23.382;2024-03-02T00:58:53;27.13;;;20.10;;
12774;SDS011;6451;42.630;23.382;2024-03-02T01:01:22;32.53;;;21.60;;
12774;SDS011;6451;42.630;23.382;2024-03-02T01:03:51;29.47;;;19.27;;
12774;SDS011;6451;42.630;23.382;2024-03-02T01:06:22;30.80;;;20.70;;
12774;SDS011;6451;42.630;23.382;2024-03-02T01:08:54;28.83;;;20.13;;
12774;SDS011;6451;42.630;23.382;2024-03-02T01:11:23;29.37;;;20.77;;
12774;SDS011;6451;42.630;23.382;2024-03-02T01:13:57;30.13;;;20.40;;
12774;SDS011;6451;42.630;23.382;2024-03-02T01:16:25;30.73;;;20.30;;
12774;SDS011;6451;42.630;23.382;2024-03-02T01:18:52;25.57;;;19.83;;
12774;SDS011;6451;42.630;23.382;2024-03-02T01:21:19;23.40;;;16.57;;
12774;SDS011;6451;42.630;23.382;2024-03-02T01:23:47;22.10;;;17.10;;
12774;SDS011;6451;42.630;23.382;2024-03-02T01:26:14;24.83;;;16.67;;
12774;SDS011;6451;42.630;23.382;2024-03-02T01:28:45;24.87;;;17.10;;
12774;SDS011;6451;42.630;23.382;2024-03-02T01:31:12;23.07;;;15.70;;
12774;SDS011;6451;42.630;23.382;2024-03-02T01:33:39;23.37;;;15.27;;
12774;SDS011;6451;42.630;23.382;2024-03-02T01:36:08;20.20;;;14.47;;
12774;SDS011;6451;42.630;23.382;2024-03-02T01:38:35;23.90;;;15.70;;
12774;SDS011;6451;42.630;23.382;2024-03-02T01:41:03;21.23;;;15.10;;
12774;SDS011;6451;42.630;23.382;2024-03-02T01:43:32;20.97;;;14.90;;
12774;SDS011;6451;42.630;23.382;2024-03-02T01:46:05;21.97;;;15.50;;
12774;SDS011;6451;42.630;23.382;2024-03-02T01:48:32;24.43;;;16.10;;
12774;SDS011;6451;42.630;23.382;2024-03-02T01:51:00;24.40;;;16.07;;
12774;SDS011;6451;42.630;23.382;2024-03-02T01:53:31;25.03;;;16.87;;
12774;SDS011;6451;42.630;23.382;2024-03-02T01:55:58;24.17;;;17.00;;
12774;SDS011;6451;42.630;23.382;2024-03-02T01:58:26;28.53;;;19.90;;
12774;SDS011;6451;42.630;23.382;2024-03-02T02:00:54;31.10;;;20.23;;
12774;SDS011;6451;42.630;23.382;2024-03-02T02:03:24;27.50;;;19.80;;
12774;SDS011;6451;42.630;23.382;2024-03-02T02:05:51;27.10;;;19.47;;
12774;SDS011;6451;42.630;23.382;2024-03-02T02:08:18;29.57;;;20.43;;
12774;SDS011;6451;42.630;23.382;2024-03-02T02:10:46;30.67;;;21.40;;
12774;SDS011;6451;42.630;23.382;2024-03-02T02:13:14;31.90;;;22.57;;
12774;SDS011;6451;42.630;23.382;2024-03-02T02:15:41;36.53;;;22.30;;
12774;SDS011;6451;42.630;23.382;2024-03-02T02:18:11;31.10;;;21.33;;
12774;SDS011;6451;42.630;23.382;2024-03-02T02:20:42;28.03;;;19.90;;
12774;SDS011;6451;42.630;23.382;2024-03-02T02:23:13;27.67;;;20.03;;
12774;SDS011;6451;42.630;23.382;2024-03-02T02:25:40;29.30;;;20.87;;
12774;SDS011;6451;42.630;23.382;2024-03-02T02:28:08;26.97;;;19.67;;
12774;SDS011;6451;42.630;23.382;2024-03-02T02:30:35;27.80;;;20.03;;
12774;SDS011;6451;42.630;23.382;2024-03-02T02:33:02;29.63;;;19.47;;
12774;SDS011;6451;42.630;23.382;2024-03-02T02:35:34;25.90;;;18.70;;
12774;SDS011;6451;42.630;23.382;2024-03-02T02:38:02;26.13;;;18.50;;
12774;SDS011;6451;42.630;23.382;2024-03-02T02:40:38;28.93;;;19.43;;
12774;SDS011;6451;42.630;23.382;2024-03-02T02:43:05;31.23;;;19.90;;
12774;SDS011;6451;42.630;23.382;2024-03-02T02:45:33;28.33;;;19.77;;
12774;SDS011;6451;42.630;23.382;2024-03-02T02:48:02;33.40;;;20.57;;
12774;SDS011;6451;42.630;23.382;2024-03-02T02:50:30;33.20;;;22.13;;
12774;SDS011;6451;42.630;23.382;2024-03-02T02:52:57;31.03;;;21.50;;
12774;SDS011;6451;42.630;23.382;2024-03-02T02:55:24;32.07;;;22.43;;
12774;SDS011;6451;42.630;23.382;2024-03-02T02:57:53;33.83;;;22.60;;
12774;SDS011;6451;42.630;23.382;2024-03-02T03:00:20;34.00;;;22.20;;
12774;SDS011;6451;42.630;23.382;2024-03-02T03:02:48;32.87;;;22.63;;
12774;SDS011;6451;42.630;23.382;2024-03-02T03:05:16;35.80;;;23.80;;
12774;SDS011;6451;42.630;23.382;2024-03-02T03:07:44;36.97;;;25.23;;
12774;SDS011;6451;42.630;23.382;2024-03-02T03:10:13;36.07;;;23.67;;
12774;SDS011;6451;42.630;23.382;2024-03-02T03:12:40;32.60;;;24.20;;
12774;SDS011;6451;42.630;23.382;2024-03-02T03:15:10;34.97;;;24.47;;
12774;SDS011;6451;42.630;23.382;2024-03-02T03:17:39;35.73;;;23.70;;
12774;SDS011;6451;42.630;23.382;2024-03-02T03:20:06;31.20;;;22.13;;
12774;SDS011;6451;42.630;23.382;2024-03-02T03:22:35;35.47;;;23.73;;
12774;SDS011;6451;42.630;23.382;2024-03-02T03:25:03;33.40;;;22.33;;
12774;SDS011;6451;42.630;23.382;2024-03-02T03:27:30;33.20;;;23.93;;
12774;SDS011;6451;42.630;23.382;2024-03-02T03:29:58;33.37;;;22.73;;
12774;SDS011;6451;42.630;23.382;2024-03-02T03:32:32;36.13;;;23.80;;
12774;SDS011;6451;42.630;23.382;2024-03-02T03:34:59;32.13;;;22.30;;
12774;SDS011;6451;42.630;23.382;2024-03-02T03:37:26;33.27;;;23.10;;
12774;SDS011;6451;42.630;23.382;2024-03-02T03:39:57;31.93;;;21.70;;
12774;SDS011;6451;42.630;23.382;2024-03-02T03:42:26;34.97;;;23.97;;
12774;SDS011;6451;42.630;23.382;2024-03-02T03:44:53;38.27;;;23.90;;
12774;SDS011;6451;42.630;23.382;2024-03-02T03:47:20;36.90;;;23.33;;
12774;SDS011;6451;42.630;23.382;2024-03-02T03:49:49;34.97;;;23.07;;
12774;SDS011;6451;42.630;23.382;2024-03-02T03:52:16;36.53;;;23.10;;
12774;SDS011;6451;42.630;23.382;2024-03-02T03:54:44;30.77;;;21.37;;
12774;SDS011;6451;42.630;23.382;2024-03-02T03:57:13;32.33;;;23.23;;
12774;SDS011;6451;42.630;23.382;2024-03-02T03:59:40;32.00;;;22.67;;
12774;SDS011;6451;42.630;23.382;2024-03-02T04:02:08;30.23;;;21.37;;
12774;SDS011;6451;42.630;23.382;2024-03-02T04:04:34;30.63;;;22.00;;
12774;SDS011;6451;42.630;23.382;2024-03-02T04:07:03;30.77;;;21.07;;
12774;SDS011;6451;42.630;23.382;2024-03-02T04:09:30;33.30;;;21.73;;
12774;SDS011;6451;42.630;23.382;2024-03-02T04:11:59;33.37;;;22.07;;
12774;SDS011;6451;42.630;23.382;2024-03-02T04:14:26;34.07;;;22.40;;
12774;SDS011;6451;42.630;23.382;2024-03-02T04:16:53;35.03;;;23.07;;
12774;SDS011;6451;42.630;23.382;2024-03-02T04:19:20;33.50;;;22.97;;
12774;SDS011;6451;42.630;23.382;2024-03-02T04:21:47;32.67;;;23.10;;
12774;SDS011;6451;42.630;23.382;2024-03-02T04:24:15;33.67;;;22.80;;
12774;SDS011;6451;42.630;23.382;2024-03-02T04:26:42;40.07;;;24.97;;
12774;SDS011;6451;42.630;23.382;2024-03-02T04:29:13;33.70;;;23.67;;
12774;SDS011;6451;42.630;23.382;2024-03-02T04:31:41;33.87;;;23.90;;
12774;SDS011;6451;42.630;23.382;2024-03-02T04:34:08;34.00;;;23.43;;
12774;SDS011;6451;42.630;23.382;2024-03-02T04:36:36;32.93;;;23.57;;
12774;SDS011;6451;42.630;23.382;2024-03-02T04:39:04;35.43;;;23.60;;
12774;SDS011;6451;42.630;23.382;2024-03-02T04:41:36;33.17;;;22.43;;
12774;SDS011;6451;42.630;23.382;2024-03-02T04:44:04;33.10;;;22.13;;
12774;SDS011;6451;42.630;23.382;2024-03-02T04:46:33;34.53;;;22.17;;
12774;SDS011;6451;42.630;23.382;2024-03-02T04:49:00;32.03;;;21.90;;
12774;SDS011;6451;42.630;23.382;2024-03-02T04:51:27;31.30;;;21.53;;
12774;SDS011;6451;42.630;23.382;2024-03-02T04:53:58;31.10;;;21.53;;
12774;SDS011;6451;42.630;23.382;2024-03-02T04:56:25;27.00;;;19.60;;
12774;SDS011;6451;42.630;23.382;2024-03-02T04:59:16;29.60;;;18.40;;
12774;SDS011;6451;42.630;23.382;2024-03-02T05:01:44;27.13;;;18.50;;
12774;SDS011;6451;42.630;23.382;2024-03-02T05:04:14;30.73;;;20.37;;
12774;SDS011;6451;42.630;23.382;2024-03-02T05:06:41;31.33;;;20.60;;
12774;SDS011;6451;42.630;23.382;2024-03-02T05:09:09;30.77;;;20.70;;
12774;SDS011;6451;42.630;23.382;2024-03-02T05:11:36;32.73;;;20.13;;
12774;SDS011;6451;42.630;23.382;2024-03-02T05:14:22;34.20;;;21.47;;
12774;SDS011;6451;42.630;23.382;2024-03-02T05:16:49;33.03;;;21.27;;
12774;SDS011;6451;42.630;23.382;2024-03-02T05:19:18;30.63;;;21.40;;
12774;SDS011;6451;42.630;23.382;2024-03-02T05:21:45;32.53;;;22.50;;
12774;SDS011;6451;42.630;23.382;2024-03-02T05:24:12;32.40;;;22.80;;
12774;SDS011;6451;42.630;23.382;2024-03-02T05:26:40;32.23;;;22.60;;
12774;SDS011;6451;42.630;23.382;2024-03-02T05:29:09;35.57;;;22.50;;
12774;SDS011;6451;42.630;23.382;2024-03-02T05:31:39;32.70;;;22.70;;
12774;SDS011;6451;42.630;23.382;2024-03-02T05:34:06;34.97;;;23.10;;
12774;SDS011;6451;42.630;23.382;2024-03-02T05:36:33;33.77;;;23.50;;
12774;SDS011;6451;42.630;23.382;2024-03-02T05:39:04;33.87;;;23.63;;
12774;SDS011;6451;42.630;23.382;2024-03-02T05:41:35;35.77;;;23.53;;
12774;SDS011;6451;42.630;23.382;2024-03-02T05:44:06;32.73;;;22.30;;
12774;SDS011;6451;42.630;23.382;2024-03-02T05:46:33;36.47;;;23.60;;
12774;SDS011;6451;42.630;23.382;2024-03-02T05:49:04;35.27;;;23.40;;
12774;SDS011;6451;42.630;23.382;2024-03-02T05:51:33;36.87;;;24.17;;
12774;SDS011;6451;42.630;23.382;2024-03-02T05:54:00;35.17;;;23.27;;
12774;SDS011;6451;42.630;23.382;2024-03-02T05:56:34;34.00;;;22.53;;
12774;SDS011;6451;42.630;23.382;2024-03-02T05:59:04;36.50;;;23.00;;
12774;SDS011;6451;42.630;23.382;2024-03-02T06:01:37;34.90;;;23.47;;
12774;SDS011;6451;42.630;23.382;2024-03-02T06:04:13;33.63;;;23.30;;
12774;SDS011;6451;42.630;23.382;2024-03-02T06:06:40;33.07;;;22.60;;
12774;SDS011;6451;42.630;23.382;2024-03-02T06:09:08;29.70;;;20.83;;
12774;SDS011;6451;42.630;23.382;2024-03-02T06:11:41;29.97;;;20.50;;
12774;SDS011;6451;42.630;23.382;2024-03-02T06:14:08;33.47;;;21.83;;
12774;SDS011;6451;42.630;23.382;2024-03-02T06:16:39;32.03;;;21.23;;
12774;SDS011;6451;42.630;23.382;2024-03-02T06:19:06;35.03;;;21.70;;
12774;SDS011;6451;42.630;23.382;2024-03-02T06:21:35;36.20;;;23.20;;
12774;SDS011;6451;42.630;23.382;2024-03-02T06:24:03;32.50;;;22.53;;
12774;SDS011;6451;42.630;23.382;2024-03-02T06:26:31;34.27;;;22.43;;
12774;SDS011;6451;42.630;23.382;2024-03-02T06:28:59;31.83;;;22.77;;
12774;SDS011;6451;42.630;23.382;2024-03-02T06:31:27;30.07;;;21.83;;
12774;SDS011;6451;42.630;23.382;2024-03-02T06:33:55;33.17;;;22.80;;
12774;SDS011;6451;42.630;23.382;2024-03-02T06:36:22;33.87;;;23.73;;
12774;SDS011;6451;42.630;23.382;2024-03-02T06:39:02;32.37;;;22.63;;
12774;SDS011;6451;42.630;23.382;2024-03-02T06:41:30;34.87;;;23.17;;
12774;SDS011;6451;42.630;23.382;2024-03-02T06:43:58;37.67;;;23.50;;
12774;SDS011;6451;42.630;23.382;2024-03-02T06:46:27;36.70;;;24.37;;
12774;SDS011;6451;42.630;23.382;2024-03-02T06:48:54;33.73;;;23.10;;
12774;SDS011;6451;42.630;23.382;2024-03-02T06:51:21;34.27;;;23.13;;
12774;SDS011;6451;42.630;23.382;2024-03-02T06:53:48;37.87;;;23.30;;
12774;SDS011;6451;42.630;23.382;2024-03-02T06:56:16;35.73;;;24.13;;
12774;SDS011;6451;42.630;23.382;2024-03-02T06:58:43;37.87;;;23.97;;
12774;SDS011;6451;42.630;23.382;2024-03-02T07:01:11;38.40;;;23.43;;
12774;SDS011;6451;42.630;23.382;2024-03-02T07:03:43;38.50;;;24.70;;
12774;SDS011;6451;42.630;23.382;2024-03-02T07:06:13;40.57;;;26.20;;
12774;SDS011;6451;42.630;23.382;2024-03-02T07:08:41;38.67;;;25.00;;
12774;SDS011;6451;42.630;23.382;2024-03-02T07:11:11;39.00;;;26.13;;
12774;SDS011;6451;42.630;23.382;2024-03-02T07:13:48;38.93;;;24.80;;
12774;SDS011;6451;42.630;23.382;2024-03-02T07:16:16;40.63;;;26.37;;
12774;SDS011;6451;42.630;23.382;2024-03-02T07:18:53;38.77;;;26.27;;
12774;SDS011;6451;42.630;23.382;2024-03-02T07:21:22;42.03;;;27.17;;
12774;SDS011;6451;42.630;23.382;2024-03-02T07:23:52;36.47;;;24.97;;
12774;SDS011;6451;42.630;23.382;2024-03-02T07:26:20;38.33;;;25.13;;
12774;SDS011;6451;42.630;23.382;2024-03-02T07:28:52;39.67;;;25.83;;
12774;SDS011;6451;42.630;23.382;2024-03-02T07:31:19;36.57;;;24.23;;
12774;SDS011;6451;42.630;23.382;2024-03-02T07:33:47;39.87;;;26.07;;
12774;SDS011;6451;42.630;23.382;2024-03-02T07:36:17;38.57;;;24.80;;
12774;SDS011;6451;42.630;23.382;2024-03-02T07:38:44;35.03;;;21.73;;
12774;SDS011;6451;42.630;23.382;2024-03-02T07:41:11;36.30;;;23.10;;
12774;SDS011;6451;42.630;23.382;2024-03-02T07:43:40;32.83;;;21.60;;
12774;SDS011;6451;42.630;23.382;2024-03-02T07:46:09;33.30;;;21.83;;
12774;SDS011;6451;42.630;23.382;2024-03-02T07:48:35;29.87;;;20.50;;
12774;SDS011;6451;42.630;23.382;2024-03-02T07:51:03;38.10;;;24.10;;
12774;SDS011;6451;42.630;23.382;2024-03-02T07:53:31;31.10;;;21.70;;
12774;SDS011;6451;42.630;23.382;2024-03-02T07:55:58;35.60;;;23.73;;
12774;SDS011;6451;42.630;23.382;2024-03-02T07:58:27;36.13;;;22.90;;
12774;SDS011;6451;42.630;23.382;2024-03-02T08:00:54;36.23;;;22.33;;
12774;SDS011;6451;42.630;23.382;2024-03-02T08:03:24;35.57;;;22.47;;
12774;SDS011;6451;42.630;23.382;2024-03-02T08:05:52;33.40;;;21.47;;
12774;SDS011;6451;42.630;23.382;2024-03-02T08:08:21;37.90;;;21.90;;
12774;SDS011;6451;42.630;23.382;2024-03-02T08:10:49;37.53;;;23.37;;
12774;SDS011;6451;42.630;23.382;2024-03-02T08:13:16;36.50;;;22.67;;
12774;SDS011;6451;42.630;23.382;2024-03-02T08:15:43;35.67;;;22.50;;
12774;SDS011;6451;42.630;23.382;2024-03-02T08:18:12;35.20;;;22.73;;
12774;SDS011;6451;42.630;23.382;2024-03-02T08:20:44;34.83;;;21.60;;
12774;SDS011;6451;42.630;23.382;2024-03-02T08:23:11;33.63;;;21.80;;
12774;SDS011;6451;42.630;23.382;2024-03-02T08:25:41;37.27;;;22.90;;
12774;SDS011;6451;42.630;23.382;2024-03-02T08:28:09;34.53;;;22.03;;
12774;SDS011;6451;42.630;23.382;2024-03-02T08:30:51;33.30;;;21.97;;
12774;SDS011;6451;42.630;23.382;2024-03-02T08:33:18;31.37;;;20.43;;
12774;SDS011;6451;42.630;23.382;2024-03-02T08:35:46;32.73;;;20.60;;
12774;SDS011;6451;42.630;23.382;2024-03-02T08:38:14;32.77;;;20.43;;
12774;SDS011;6451;42.630;23.382;2024-03-02T08:40:50;32.90;;;21.07;;
12774;SDS011;6451;42.630;23.382;2024-03-02T08:43:20;28.47;;;20.10;;
12774;SDS011;6451;42.630;23.382;2024-03-02T08:45:48;34.40;;;20.50;;
12774;SDS011;6451;42.630;23.382;2024-03-02T08:48:16;33.10;;;21.20;;
12774;SDS011;6451;42.630;23.382;2024-03-02T08:50:43;30.77;;;20.03;;
12774;SDS011;6451;42.630;23.382;2024-03-02T08:53:12;33.30;;;19.43;;
12774;SDS011;6451;42.630;23.382;2024-03-02T08:55:43;29.23;;;19.63;;
12774;SDS011;6451;42.630;23.382;2024-03-02T08:58:12;32.03;;;19.60;;
12774;SDS011;6451;42.630;23.382;2024-03-02T09:00:42;23.80;;;16.67;;
12774;SDS011;6451;42.630;23.382;2024-03-02T09:03:10;25.43;;;17.17;;
12774;SDS011;6451;42.630;23.382;2024-03-02T09:05:37;23.20;;;16.83;;
12774;SDS011;6451;42.630;23.382;2024-03-02T09:08:05;24.77;;;16.93;;
12774;SDS011;6451;42.630;23.382;2024-03-02T09:10:34;23.83;;;16.83;;
12774;SDS011;6451;42.630;23.382;2024-03-02T09:13:03;22.63;;;15.43;;
12774;SDS011;6451;42.630;23.382;2024-03-02T09:15:31;20.77;;;14.77;;
12774;SDS011;6451;42.630;23.382;2024-03-02T09:17:58;20.13;;;14.43;;
12774;SDS011;6451;42.630;23.382;2024-03-02T09:20:28;19.63;;;14.53;;
12774;SDS011;6451;42.630;23.382;2024-03-02T09:22:57;19.03;;;14.07;;
12774;SDS011;6451;42.630;23.382;2024-03-02T09:25:24;19.33;;;13.50;;
12774;SDS011;6451;42.630;23.382;2024-03-02T09:27:53;18.03;;;12.90;;
12774;SDS011;6451;42.630;23.382;2024-03-02T09:30:19;19.97;;;13.50;;
12774;SDS011;6451;42.630;23.382;2024-03-02T09:32:47;19.83;;;14.70;;
12774;SDS011;6451;42.630;23.382;2024-03-02T09:35:14;21.60;;;14.60;;
12774;SDS011;6451;42.630;23.382;2024-03-02T09:37:41;18.07;;;13.97;;
12774;SDS011;6451;42.630;23.382;2024-03-02T09:40:10;22.57;;;15.07;;
12774;SDS011;6451;42.630;23.382;2024-03-02T09:42:40;21.33;;;15.40;;
12774;SDS011;6451;42.630;23.382;2024-03-02T09:45:13;22.27;;;15.70;;
12774;SDS011;6451;42.630;23.382;2024-03-02T09:47:41;25.37;;;16.20;;
12774;SDS011;6451;42.630;23.382;2024-03-02T09:50:09;20.73;;;14.20;;
12774;SDS011;6451;42.630;23.382;2024-03-02T09:52:36;18.17;;;14.30;;
12774;SDS011;6451;42.630;23.382;2024-03-02T09:55:04;22.83;;;15.00;;
12774;SDS011;6451;42.630;23.382;2024-03-02T09:57:32;21.60;;;14.80;;
12774;SDS011;6451;42.630;23.382;2024-03-02T09:59:59;19.87;;;15.23;;
12774;SDS011;6451;42.630;23.382;2024-03-02T10:02:30;19.50;;;13.37;;
12774;SDS011;6451;42.630;23.382;2024-03-02T10:04:57;22.90;;;15.00;;
12774;SDS011;6451;42.630;23.382;2024-03-02T10:07:26;22.50;;;14.83;;
12774;SDS011;6451;42.630;23.382;2024-03-02T10:09:54;23.73;;;16.07;;
12774;SDS011;6451;42.630;23.382;2024-03-02T10:12:21;25.07;;;16.60;;
12774;SDS011;6451;42.630;23.382;2024-03-02T10:14:49;26.93;;;17.30;;
12774;SDS011;6451;42.630;23.382;2024-03-02T10:17:32;19.27;;;13.97;;
12774;SDS011;6451;42.630;23.382;2024-03-02T10:19:59;16.37;;;12.33;;
12774;SDS011;6451;42.630;23.382;2024-03-02T10:22:49;19.47;;;14.57;;
12774;SDS011;6451;42.630;23.382;2024-03-02T10:25:28;20.67;;;14.63;;
12774;SDS011;6451;42.630;23.382;2024-03-02T10:27:57;21.60;;;15.73;;
12774;SDS011;6451;42.630;23.382;2024-03-02T10:30:25;19.50;;;14.30;;
12774;SDS011;6451;42.630;23.382;2024-03-02T10:33:00;19.80;;;14.53;;
12774;SDS011;6451;42.630;23.382;2024-03-02T10:35:28;18.73;;;13.33;;
12774;SDS011;6451;42.630;23.382;2024-03-02T10:37:57;18.97;;;14.03;;
12774;SDS011;6451;42.630;23.382;2024-03-02T10:40:31;19.47;;;14.20;;
12774;SDS011;6451;42.630;23.382;2024-03-02T10:42:59;19.73;;;14.90;;
12774;SDS011;6451;42.630;23.382;2024-03-02T10:45:28;19.70;;;15.03;;
12774;SDS011;6451;42.630;23.382;2024-03-02T10:48:07;19.20;;;14.33;;
12774;SDS011;6451;42.630;23.382;2024-03-02T10:50:37;19.80;;;14.87;;
12774;SDS011;6451;42.630;23.382;2024-03-02T10:53:04;19.70;;;14.20;;
12774;SDS011;6451;42.630;23.382;2024-03-02T10:55:33;16.70;;;12.87;;
12774;SDS011;6451;42.630;23.382;2024-03-02T10:58:07;18.67;;;13.53;;
12774;SDS011;6451;42.630;23.382;2024-03-02T11:00:40;19.50;;;14.00;;
12774;SDS011;6451;42.630;23.382;2024-03-02T11:03:16;16.57;;;12.70;;
12774;SDS011;6451;42.630;23.382;2024-03-02T11:05:46;17.83;;;12.90;;
12774;SDS011;6451;42.630;23.382;2024-03-02T11:08:16;19.33;;;13.13;;
12774;SDS011;6451;42.630;23.382;2024-03-02T11:10:48;18.30;;;14.07;;
12774;SDS011;6451;42.630;23.382;2024-03-02T11:13:30;18.83;;;13.00;;
12774;SDS011;6451;42.630;23.382;2024-03-02T11:16:03;17.87;;;12.37;;
12774;SDS011;6451;42.630;23.382;2024-03-02T11:18:35;19.10;;;13.37;;
12774;SDS011;6451;42.630;23.382;2024-03-02T11:21:10;21.67;;;15.00;;
12774;SDS011;6451;42.630;23.382;2024-03-02T11:23:38;20.67;;;14.33;;
12774;SDS011;6451;42.630;23.382;2024-03-02T11:26:17;19.87;;;14.60;;
12774;SDS011;6451;42.630;23.382;2024-03-02T11:28:44;20.20;;;14.57;;
12774;SDS011;6451;42.630;23.382;2024-03-02T11:31:14;21.00;;;14.50;;
12774;SDS011;6451;42.630;23.382;2024-03-02T11:33:44;18.17;;;14.23;;
12774;SDS011;6451;42.630;23.382;2024-03-02T11:36:14;19.43;;;13.97;;
12774;SDS011;6451;42.630;23.382;2024-03-02T11:38:46;22.20;;;14.90;;
12774;SDS011;6451;42.630;23.382;2024-03-02T11:41:14;18.77;;;13.97;;
12774;SDS011;6451;42.630;23.382;2024-03-02T11:43:43;19.87;;;14.83;;
12774;SDS011;6451;42.630;23.382;2024-03-02T11:46:10;19.87;;;14.33;;
12774;SDS011;6451;42.630;23.382;2024-03-02T11:48:38;17.93;;;12.93;;
12774;SDS011;6451;42.630;23.382;2024-03-02T11:51:07;19.47;;;14.40;;
12774;SDS011;6451;42.630;23.382;2024-03-02T11:53:34;18.23;;;13.57;;
12774;SDS011;6451;42.630;23.382;2024-03-02T11:56:05;18.70;;;13.80;;
12774;SDS011;6451;42.630;23.382;2024-03-02T11:58:37;18.10;;;13.67;;
12774;SDS011;6451;42.630;23.382;2024-03-02T12:01:06;18.23;;;13.50;;
12774;SDS011;6451;42.630;23.382;2024-03-02T12:03:34;16.87;;;12.87;;
12774;SDS011;6451;42.630;23.382;2024-03-02T12:06:01;17.27;;;13.03;;
12774;SDS011;6451;42.630;23.382;2024-03-02T12:08:35;16.93;;;12.17;;
12774;SDS011;6451;42.630;23.382;2024-03-02T12:11:09;17.23;;;11.97;;
12774;SDS011;6451;42.630;23.382;2024-03-02T12:13:42;14.97;;;11.50;;
12774;SDS011;6451;42.630;23.382;2024-03-02T12:16:24;16.20;;;12.33;;
12774;SDS011;6451;42.630;23.382;2024-03-02T12:18:56;16.17;;;11.97;;
12774;SDS011;6451;42.630;23.382;2024-03-02T12:21:25;16.53;;;12.73;;
12774;SDS011;6451;42.630;23.382;2024-03-02T12:23:53;16.20;;;11.97;;
12774;SDS011;6451;42.630;23.382;2024-03-02T12:26:20;16.60;;;11.57;;
12774;SDS011;6451;42.630;23.382;2024-03-02T12:28:49;17.17;;;12.63;;
12774;SDS011;6451;42.630;23.382;2024-03-02T12:31:17;15.90;;;12.57;;
12774;SDS011;6451;42.630;23.382;2024-03-02T12:33:51;16.43;;;12.53;;
12774;SDS011;6451;42.630;23.382;2024-03-02T12:36:18;14.27;;;11.63;;
12774;SDS011;6451;42.630;23.382;2024-03-02T12:38:45;16.83;;;11.90;;
12774;SDS011;6451;42.630;23.382;2024-03-02T12:41:16;18.17;;;12.13;;
12774;SDS011;6451;42.630;23.382;2024-03-02T12:43:45;15.40;;;11.63;;
12774;SDS011;6451;42.630;23.382;2024-03-02T12:46:13;16.17;;;12.20;;
12774;SDS011;6451;42.630;23.382;2024-03-02T12:48:41;16.17;;;12.23;;
12774;SDS011;6451;42.630;23.382;2024-03-02T12:51:07;17.83;;;12.27;;
12774;SDS011;6451;42.630;23.382;2024-03-02T12:53:35;15.40;;;11.63;;
12774;SDS011;6451;42.630;23.382;2024-03-02T12:56:02;16.33;;;12.47;;
12774;SDS011;6451;42.630;23.382;2024-03-02T13:12:00;16.83;;;12.50;;
12774;SDS011;6451;42.630;23.382;2024-03-02T13:14:31;16.47;;;12.07;;
12774;SDS011;6451;42.630;23.382;2024-03-02T13:17:02;14.77;;;12.13;;
12774;SDS011;6451;42.630;23.382;2024-03-02T13:19:30;15.90;;;12.60;;
12774;SDS011;6451;42.630;23.382;2024-03-02T13:21:57;15.43;;;12.30;;
12774;SDS011;6451;42.630;23.382;2024-03-02T13:24:27;17.90;;;12.87;;
12774;SDS011;6451;42.630;23.382;2024-03-02T13:26:58;17.60;;;13.10;;
12774;SDS011;6451;42.630;23.382;2024-03-02T13:29:30;17.20;;;13.17;;
12774;SDS011;6451;42.630;23.382;2024-03-02T13:31:57;17.20;;;12.70;;
12774;SDS011;6451;42.630;23.382;2024-03-02T13:34:27;18.20;;;13.17;;
12774;SDS011;6451;42.630;23.382;2024-03-02T13:37:02;16.53;;;13.33;;
12774;SDS011;6451;42.630;23.382;2024-03-02T13:39:30;19.07;;;13.47;;
12774;SDS011;6451;42.630;23.382;2024-03-02T13:42:01;16.83;;;12.83;;
12774;SDS011;6451;42.630;23.382;2024-03-02T13:44:32;18.77;;;13.73;;
12774;SDS011;6451;42.630;23.382;2024-03-02T13:47:03;17.13;;;13.07;;
12774;SDS011;6451;42.630;23.382;2024-03-02T13:49:32;18.87;;;13.53;;
12774;SDS011;6451;42.630;23.382;2024-03-02T13:52:02;18.37;;;14.13;;
12774;SDS011;6451;42.630;23.382;2024-03-02T13:54:39;20.50;;;14.57;;
12774;SDS011;6451;42.630;23.382;2024-03-02T13:57:09;17.97;;;13.27;;
12774;SDS011;6451;42.630;23.382;2024-03-02T13:59:39;17.70;;;13.63;;
12774;SDS011;6451;42.630;23.382;2024-03-02T14:02:08;19.13;;;14.30;;
12774;SDS011;6451;42.630;23.382;2024-03-02T14:04:37;18.97;;;13.97;;
12774;SDS011;6451;42.630;23.382;2024-03-02T14:07:04;20.67;;;15.37;;
12774;SDS011;6451;42.630;23.382;2024-03-02T14:09:32;17.40;;;14.17;;
12774;SDS011;6451;42.630;23.382;2024-03-02T14:12:00;19.13;;;13.43;;
12774;SDS011;6451;42.630;23.382;2024-03-02T14:14:32;18.07;;;14.17;;
12774;SDS011;6451;42.630;23.382;2024-03-02T14:16:59;17.73;;;13.60;;
12774;SDS011;6451;42.630;23.382;2024-03-02T14:19:29;18.50;;;14.03;;
12774;SDS011;6451;42.630;23.382;2024-03-02T14:21:56;18.70;;;14.33;;
12774;SDS011;6451;42.630;23.382;2024-03-02T14:24:25;20.53;;;14.10;;
12774;SDS011;6451;42.630;23.382;2024-03-02T14:26:54;18.50;;;14.73;;
12774;SDS011;6451;42.630;23.382;2024-03-02T14:29:27;17.53;;;13.20;;
12774;SDS011;6451;42.630;23.382;2024-03-02T14:31:58;17.47;;;13.30;;
12774;SDS011;6451;42.630;23.382;2024-03-02T14:34:27;18.03;;;13.73;;
12774;SDS011;6451;42.630;23.382;2024-03-02T14:36:58;17.07;;;13.80;;
12774;SDS011;6451;42.630;23.382;2024-03-02T14:39:26;18.17;;;13.70;;
12774;SDS011;6451;42.630;23.382;2024-03-02T14:41:53;17.93;;;14.23;;
12774;SDS011;6451;42.630;23.382;2024-03-02T14:44:21;17.03;;;13.80;;
12774;SDS011;6451;42.630;23.382;2024-03-02T14:46:48;18.67;;;14.40;;